createdAt,value
2022-11-10T00:00:42.892Z,83.01
2022-11-10T00:01:42.829Z,82.84
2022-11-10T00:02:42.813Z,82.91
2022-11-10T00:03:42.940Z,82.89
2022-11-10T00:04:42.850Z,82.95
2022-11-10T00:05:42.830Z,82.75
2022-11-10T00:06:42.866Z,82.84
2022-11-10T00:07:42.925Z,82.64
2022-11-10T00:08:42.820Z,82.34
2022-11-10T00:09:42.829Z,82.29
2022-11-10T00:10:42.765Z,82.70
2022-11-10T00:11:42.796Z,82.75
2022-11-10T00:12:42.773Z,82.54
2022-11-10T00:13:42.784Z,82.29
2022-11-10T00:14:42.744Z,82.29
2022-11-10T00:15:42.761Z,82.29
2022-11-10T00:16:42.762Z,82.70
2022-11-10T00:17:42.739Z,81.68
2022-11-10T00:18:42.745Z,81.58
2022-11-10T00:19:42.745Z,81.34
2022-11-10T00:20:42.765Z,81.38
2022-11-10T00:21:42.715Z,81.48
2022-11-10T00:22:42.714Z,81.27
2022-11-10T00:23:42.707Z,81.01
2022-11-10T00:25:54.630Z,82.23
2022-11-10T00:26:55.767Z,82.37
2022-11-10T00:27:55.770Z,83.19
2022-11-10T00:28:55.742Z,82.23
2022-11-10T00:29:55.715Z,83.25
2022-11-10T00:30:55.746Z,82.57
2022-11-10T00:31:55.712Z,82.43
2022-11-10T00:32:55.698Z,82.48
2022-11-10T00:33:55.784Z,82.43
2022-11-10T00:34:55.719Z,82.03
2022-11-10T00:35:55.674Z,82.03
2022-11-10T00:36:55.710Z,82.75
2022-11-10T00:37:55.679Z,83.15
2022-11-10T00:38:55.666Z,82.68
2022-11-10T00:39:55.734Z,82.68
2022-11-10T00:40:55.654Z,83.13
2022-11-10T00:41:55.644Z,83.03
2022-11-10T00:42:55.669Z,82.92
2022-11-10T00:43:55.710Z,83.54
2022-11-10T00:44:55.633Z,83.23
2022-11-10T00:45:55.651Z,83.13
2022-11-10T00:46:55.626Z,83.06
2022-11-10T00:47:55.618Z,83.23
2022-11-10T00:48:55.638Z,83.13
2022-11-10T00:49:55.597Z,83.74
2022-11-10T00:50:55.622Z,83.13
2022-11-10T00:51:55.811Z,83.78
2022-11-10T00:52:55.590Z,83.47
2022-11-10T00:53:55.655Z,83.47
2022-11-10T00:54:55.594Z,83.68
2022-11-10T00:55:55.590Z,83.17
2022-11-10T00:56:55.578Z,83.74
2022-11-10T00:57:55.562Z,83.03
2022-11-10T00:58:55.555Z,81.90
2022-11-10T00:59:55.574Z,83.13
2022-11-10T01:00:55.696Z,82.92
2022-11-10T01:01:55.587Z,82.71
2022-11-10T01:02:55.530Z,82.76
2022-11-10T01:03:55.526Z,83.27
2022-11-10T01:04:55.561Z,83.13
2022-11-10T01:05:55.510Z,83.09
2022-11-10T01:06:55.570Z,82.51
2022-11-10T01:07:55.531Z,83.03
2022-11-10T01:08:55.487Z,83.13
2022-11-10T01:09:55.491Z,83.13
2022-11-10T01:10:55.503Z,82.92
2022-11-10T01:11:55.491Z,82.82
2022-11-10T01:12:55.474Z,83.13
2022-11-10T01:13:55.483Z,83.29
2022-11-10T01:14:55.458Z,82.78
2022-11-10T01:15:55.448Z,82.89
2022-11-10T01:16:55.463Z,82.13
2022-11-10T01:17:55.432Z,81.86
2022-11-10T01:18:55.445Z,82.98
2022-11-10T01:19:55.468Z,83.23
2022-11-10T01:20:55.426Z,82.62
2022-11-10T01:21:55.429Z,83.23
2022-11-10T01:22:55.447Z,83.06
2022-11-10T01:23:55.399Z,83.23
2022-11-10T01:24:55.401Z,83.06
2022-11-10T01:25:55.416Z,83.33
2022-11-10T01:26:55.385Z,83.37
2022-11-10T01:27:55.383Z,83.17
2022-11-10T01:28:55.416Z,83.06
2022-11-10T01:29:55.373Z,83.47
2022-11-10T01:30:55.364Z,82.82
2022-11-10T01:31:55.399Z,83.44
2022-11-10T01:32:55.351Z,82.76
2022-11-10T01:33:55.367Z,83.72
2022-11-10T01:34:55.372Z,83.92
2022-11-10T01:35:55.345Z,83.82
2022-11-10T01:36:55.337Z,84.44
2022-11-10T01:37:55.352Z,84.58
2022-11-10T01:38:55.357Z,84.99
2022-11-10T01:39:55.350Z,85.19
2022-11-10T01:40:55.319Z,85.23
2022-11-10T01:41:55.322Z,85.03
2022-11-10T01:42:55.316Z,85.17
2022-11-10T01:43:55.294Z,85.89
2022-11-10T01:44:55.304Z,85.85
2022-11-10T01:45:55.305Z,85.85
2022-11-10T01:46:55.283Z,86.46
2022-11-10T01:47:55.273Z,86.57
2022-11-10T01:48:55.296Z,86.25
2022-11-10T01:49:55.275Z,85.64
2022-11-10T01:50:55.269Z,85.23
2022-11-10T01:51:55.304Z,85.33
2022-11-10T01:52:55.249Z,84.99
2022-11-10T01:53:55.261Z,84.88
2022-11-10T01:54:55.255Z,84.82
2022-11-10T01:55:56.252Z,85.23
2022-11-10T01:56:55.221Z,85.06
2022-11-10T01:57:55.213Z,85.89
2022-11-10T01:58:55.236Z,85.99
2022-11-10T01:59:55.209Z,85.99
2022-11-10T02:00:55.277Z,86.24
2022-11-10T02:01:55.214Z,86.44
2022-11-10T02:02:55.189Z,86.33
2022-11-10T02:03:55.176Z,86.24
2022-11-10T02:04:55.185Z,86.13
2022-11-10T02:05:55.176Z,86.44
2022-11-10T02:06:55.207Z,86.30
2022-11-10T02:07:55.184Z,86.09
2022-11-10T02:08:55.153Z,85.68
2022-11-10T02:09:55.163Z,85.47
2022-11-10T02:10:55.216Z,85.78
2022-11-10T02:11:55.147Z,85.89
2022-11-10T02:12:55.120Z,86.19
2022-11-10T02:13:55.155Z,86.19
2022-11-10T02:14:55.111Z,85.38
2022-11-10T02:15:55.099Z,85.17
2022-11-10T02:16:55.151Z,85.58
2022-11-10T02:17:55.092Z,85.78
2022-11-10T02:18:55.089Z,85.89
2022-11-10T02:19:55.098Z,85.89
2022-11-10T02:20:55.091Z,85.74
2022-11-10T02:21:55.080Z,85.23
2022-11-10T02:22:55.082Z,84.92
2022-11-10T02:23:55.083Z,85.19
2022-11-10T02:24:55.059Z,85.03
2022-11-10T02:25:55.068Z,85.23
2022-11-10T02:26:55.078Z,85.13
2022-11-10T02:27:55.055Z,85.30
2022-11-10T02:28:55.061Z,85.23
2022-11-10T02:29:55.028Z,84.82
2022-11-10T02:30:55.021Z,85.23
2022-11-10T02:31:55.022Z,85.03
2022-11-10T02:32:55.032Z,85.33
2022-11-10T02:33:55.010Z,84.47
2022-11-10T02:34:55.007Z,85.33
2022-11-10T02:35:54.981Z,85.13
2022-11-10T02:36:54.980Z,85.03
2022-11-10T02:37:55.003Z,85.39
2022-11-10T02:38:55.006Z,85.09
2022-11-10T02:39:54.980Z,85.09
2022-11-10T02:40:54.979Z,85.19
2022-11-10T02:41:54.943Z,85.09
2022-11-10T02:42:54.939Z,84.06
2022-11-10T02:43:55.043Z,85.19
2022-11-10T02:44:54.931Z,84.78
2022-11-10T02:45:54.919Z,84.99
2022-11-10T02:46:54.927Z,85.19
2022-11-10T02:47:54.907Z,84.44
2022-11-10T02:48:54.915Z,84.06
2022-11-10T02:49:54.955Z,83.61
2022-11-10T02:50:54.906Z,83.96
2022-11-10T02:51:54.892Z,83.41
2022-11-10T02:52:54.910Z,83.96
2022-11-10T02:53:54.875Z,84.27
2022-11-10T02:54:54.866Z,84.37
2022-11-10T02:55:54.897Z,85.39
2022-11-10T02:56:54.883Z,84.17
2022-11-10T02:57:54.852Z,83.92
2022-11-10T02:58:54.846Z,83.86
2022-11-10T02:59:54.867Z,83.82
2022-11-10T03:00:54.884Z,83.55
2022-11-10T03:01:54.837Z,83.45
2022-11-10T03:02:54.849Z,83.45
2022-11-10T03:03:54.830Z,83.31
2022-11-10T03:04:54.802Z,83.59
2022-11-10T03:05:54.813Z,83.76
2022-11-10T03:06:54.864Z,83.76
2022-11-10T03:07:54.787Z,83.76
2022-11-10T03:08:54.798Z,83.76
2022-11-10T03:09:54.786Z,83.76
2022-11-10T03:10:54.763Z,83.20
2022-11-10T03:11:54.805Z,83.20
2022-11-10T03:12:54.762Z,83.04
2022-11-10T03:14:02.487Z,83.90
2022-11-10T03:14:56.767Z,83.65
2022-11-10T03:15:54.748Z,83.96
2022-11-10T03:16:54.813Z,84.10
2022-11-10T03:17:54.813Z,84.52
2022-11-10T03:18:54.729Z,85.23
2022-11-10T03:19:54.718Z,85.39
2022-11-10T03:20:54.729Z,84.99
2022-11-10T03:21:54.705Z,85.39
2022-11-10T03:22:54.713Z,85.25
2022-11-10T03:23:54.716Z,84.03
2022-11-10T03:24:54.688Z,83.92
2022-11-10T03:25:54.681Z,83.68
2022-11-10T03:26:54.694Z,83.31
2022-11-10T03:27:54.689Z,83.96
2022-11-10T03:28:54.665Z,84.17
2022-11-10T03:29:54.672Z,84.23
2022-11-10T03:30:54.677Z,83.96
2022-11-10T03:31:54.647Z,83.72
2022-11-10T03:32:54.674Z,83.96
2022-11-10T03:33:54.629Z,85.23
2022-11-10T03:34:54.635Z,85.44
2022-11-10T03:35:54.657Z,85.03
2022-11-10T03:36:54.699Z,85.27
2022-11-10T03:37:54.600Z,86.03
2022-11-10T03:38:54.654Z,87.67
2022-11-10T03:39:54.597Z,86.85
2022-11-10T03:41:18.113Z,87.16
2022-11-10T03:41:56.612Z,87.16
2022-11-10T03:42:54.587Z,86.65
2022-11-10T03:43:54.594Z,86.65
2022-11-10T03:44:54.614Z,86.58
2022-11-10T03:45:54.570Z,87.13
2022-11-10T03:46:54.557Z,87.96
2022-11-10T03:47:54.573Z,87.65
2022-11-10T03:48:54.551Z,87.55
2022-11-10T03:49:54.536Z,88.00
2022-11-10T03:50:54.566Z,88.20
2022-11-10T03:51:54.544Z,88.62
2022-11-10T03:52:54.522Z,88.20
2022-11-10T03:53:54.557Z,88.20
2022-11-10T03:54:58.031Z,87.96
2022-11-10T03:55:55.524Z,88.00
2022-11-10T03:56:54.493Z,88.72
2022-11-10T03:57:54.512Z,89.19
2022-11-10T03:58:54.533Z,88.27
2022-11-10T03:59:54.519Z,87.75
2022-11-10T04:00:54.509Z,87.65
2022-11-10T04:01:54.529Z,87.55
2022-11-10T04:02:54.470Z,87.75
2022-11-10T04:03:54.476Z,87.24
2022-11-10T04:04:54.482Z,87.20
2022-11-10T04:05:54.455Z,86.58
2022-11-10T04:06:54.512Z,86.99
2022-11-10T04:07:54.469Z,86.68
2022-11-10T04:08:54.426Z,86.85
2022-11-10T04:09:54.462Z,86.44
2022-11-10T04:10:54.432Z,86.48
2022-11-10T04:11:54.439Z,86.42
2022-11-10T04:12:54.433Z,86.62
2022-11-10T04:13:54.409Z,87.10
2022-11-10T04:14:54.397Z,86.58
2022-11-10T04:15:54.457Z,86.99
2022-11-10T04:16:54.401Z,86.32
2022-11-10T04:17:54.368Z,86.56
2022-11-10T04:18:54.401Z,86.56
2022-11-10T04:19:54.365Z,87.49
2022-11-10T04:20:54.364Z,87.07
2022-11-10T04:21:54.637Z,86.87
2022-11-10T04:22:54.354Z,86.32
2022-11-10T04:23:54.333Z,86.35
2022-11-10T04:24:54.358Z,86.66
2022-11-10T04:25:54.324Z,87.01
2022-11-10T04:26:54.320Z,87.42
2022-11-10T04:27:54.317Z,87.69
2022-11-10T04:28:54.329Z,87.49
2022-11-10T04:29:54.297Z,87.59
2022-11-10T04:30:54.300Z,86.77
2022-11-10T04:31:54.313Z,86.97
2022-11-10T04:32:54.468Z,86.66
2022-11-10T04:33:54.273Z,87.01
2022-11-10T04:34:54.296Z,86.66
2022-11-10T04:35:54.256Z,87.12
2022-11-10T04:36:54.272Z,87.22
2022-11-10T04:37:54.261Z,87.73
2022-11-10T04:38:54.256Z,87.52
2022-11-10T04:39:54.228Z,87.63
2022-11-10T04:40:54.253Z,87.84
2022-11-10T04:41:58.396Z,87.63
2022-11-10T04:42:55.238Z,87.59
2022-11-10T04:43:54.203Z,87.49
2022-11-10T04:44:54.192Z,87.69
2022-11-10T04:45:54.212Z,87.63
2022-11-10T04:46:54.259Z,87.22
2022-11-10T04:47:54.197Z,87.28
2022-11-10T04:48:54.180Z,87.07
2022-11-10T04:49:54.192Z,87.07
2022-11-10T04:50:54.173Z,87.01
2022-11-10T04:51:54.206Z,87.28
2022-11-10T04:52:54.197Z,86.87
2022-11-10T04:53:55.293Z,86.97
2022-11-10T04:54:54.144Z,86.46
2022-11-10T04:55:54.161Z,86.56
2022-11-10T04:56:54.157Z,86.66
2022-11-10T04:57:54.132Z,86.50
2022-11-10T04:58:54.156Z,86.77
2022-11-10T04:59:54.120Z,86.15
2022-11-10T05:00:54.165Z,86.25
2022-11-10T05:01:54.117Z,86.35
2022-11-10T05:02:54.101Z,86.56
2022-11-10T05:03:54.095Z,85.94
2022-11-10T05:04:54.107Z,86.19
2022-11-10T05:05:54.071Z,86.29
2022-11-10T05:06:54.213Z,86.64
2022-11-10T05:07:54.078Z,86.54
2022-11-10T05:08:54.059Z,87.12
2022-11-10T05:09:54.076Z,86.23
2022-11-10T05:10:54.082Z,87.57
2022-11-10T05:11:54.036Z,87.26
2022-11-10T05:12:54.031Z,87.26
2022-11-10T05:13:54.046Z,87.46
2022-11-10T05:14:54.043Z,87.67
2022-11-10T05:15:54.035Z,88.23
2022-11-10T05:16:55.034Z,88.53
2022-11-10T05:17:54.003Z,88.64
2022-11-10T05:18:54.818Z,88.84
2022-11-10T05:19:54.076Z,87.87
2022-11-10T05:20:54.048Z,87.60
2022-11-10T05:21:53.976Z,87.81
2022-11-10T05:22:54.025Z,87.85
2022-11-10T05:23:53.967Z,89.09
2022-11-10T05:24:53.958Z,89.19
2022-11-10T05:25:53.986Z,88.84
2022-11-10T05:26:55.231Z,89.05
2022-11-10T05:27:53.966Z,88.59
2022-11-10T05:28:53.986Z,88.39
2022-11-10T05:29:53.954Z,87.87
2022-11-10T05:30:53.918Z,87.36
2022-11-10T05:31:53.937Z,87.98
2022-11-10T05:32:53.943Z,87.57
2022-11-10T05:33:53.930Z,87.01
2022-11-10T05:34:53.907Z,87.67
2022-11-10T05:35:53.918Z,87.26
2022-11-10T05:36:53.913Z,87.77
2022-11-10T05:37:53.905Z,87.42
2022-11-10T05:38:53.882Z,87.77
2022-11-10T05:39:53.914Z,87.26
2022-11-10T05:40:53.870Z,87.87
2022-11-10T05:41:53.864Z,88.49
2022-11-10T05:42:53.906Z,88.04
2022-11-10T05:43:53.875Z,87.73
2022-11-10T05:44:53.830Z,88.04
2022-11-10T05:45:53.826Z,87.12
2022-11-10T05:46:53.882Z,87.63
2022-11-10T05:47:53.821Z,87.94
2022-11-10T05:48:53.835Z,87.73
2022-11-10T05:49:53.834Z,87.63
2022-11-10T05:50:53.801Z,87.49
2022-11-10T05:51:53.802Z,86.87
2022-11-10T05:52:54.745Z,87.07
2022-11-10T05:53:53.796Z,86.15
2022-11-10T05:54:53.797Z,86.66
2022-11-10T05:55:53.775Z,85.94
2022-11-10T05:56:54.805Z,86.11
2022-11-10T05:57:53.763Z,86.11
2022-11-10T05:58:53.748Z,85.49
2022-11-10T05:59:53.760Z,85.43
2022-11-10T06:00:53.792Z,85.39
2022-11-10T06:01:53.739Z,85.70
2022-11-10T06:02:53.721Z,85.94
2022-11-10T06:03:53.798Z,86.05
2022-11-10T06:04:53.724Z,85.84
2022-11-10T06:05:53.708Z,86.15
2022-11-10T06:06:53.794Z,86.25
2022-11-10T06:07:53.689Z,86.05
2022-11-10T06:08:53.682Z,85.70
2022-11-10T06:09:53.713Z,85.39
2022-11-10T06:10:53.672Z,85.49
2022-11-10T06:11:53.661Z,85.66
2022-11-10T06:12:53.700Z,85.49
2022-11-10T06:13:53.673Z,85.49
2022-11-10T06:14:53.654Z,85.35
2022-11-10T06:15:53.680Z,84.22
2022-11-10T06:16:53.635Z,84.77
2022-11-10T06:17:53.624Z,84.36
2022-11-10T06:18:53.632Z,85.43
2022-11-10T06:19:53.614Z,85.94
2022-11-10T06:20:54.600Z,86.15
2022-11-10T06:22:00.469Z,86.35
2022-11-10T06:22:55.596Z,86.05
2022-11-10T06:23:53.613Z,86.05
2022-11-10T06:24:53.610Z,85.94
2022-11-10T06:25:53.589Z,86.25
2022-11-10T06:26:53.564Z,86.60
2022-11-10T06:27:53.590Z,87.12
2022-11-10T06:28:53.557Z,87.01
2022-11-10T06:29:53.549Z,88.24
2022-11-10T06:30:53.575Z,88.04
2022-11-10T06:31:53.537Z,87.84
2022-11-10T06:32:53.537Z,87.46
2022-11-10T06:33:53.551Z,87.98
2022-11-10T06:34:57.826Z,87.84
2022-11-10T06:35:55.533Z,87.94
2022-11-10T06:36:53.561Z,86.77
2022-11-10T06:37:53.526Z,87.13
2022-11-10T06:38:53.510Z,86.77
2022-11-10T06:39:53.632Z,86.52
2022-11-10T06:41:25.659Z,86.00
2022-11-10T06:41:53.473Z,86.00
2022-11-10T06:42:53.463Z,85.80
2022-11-10T06:43:53.469Z,86.07
2022-11-10T06:44:54.457Z,85.70
2022-11-10T06:45:53.469Z,85.35
2022-11-10T06:46:53.481Z,85.25
2022-11-10T06:47:53.450Z,85.00
2022-11-10T06:48:53.437Z,85.00
2022-11-10T06:49:53.424Z,85.31
2022-11-10T06:50:53.432Z,84.59
2022-11-10T06:51:53.427Z,84.04
2022-11-10T06:52:53.407Z,83.98
2022-11-10T06:53:53.413Z,84.08
2022-11-10T06:54:53.408Z,84.28
2022-11-10T06:55:53.400Z,85.46
2022-11-10T06:56:53.399Z,85.14
2022-11-10T06:57:53.378Z,85.25
2022-11-10T06:58:54.343Z,85.35
2022-11-10T06:59:53.366Z,85.55
2022-11-10T07:00:53.406Z,85.46
2022-11-10T07:01:53.357Z,85.41
2022-11-10T07:02:53.366Z,85.46
2022-11-10T07:04:18.265Z,85.21
2022-11-10T07:04:55.338Z,85.11
2022-11-10T07:05:54.328Z,85.11
2022-11-10T07:06:53.358Z,84.59
2022-11-10T07:07:53.345Z,84.96
2022-11-10T07:08:53.338Z,85.17
2022-11-10T07:09:54.315Z,83.73
2022-11-10T07:10:53.296Z,83.83
2022-11-10T07:11:53.307Z,83.18
2022-11-10T07:12:53.278Z,82.67
2022-11-10T07:13:53.393Z,83.34
2022-11-10T07:14:53.277Z,83.39
2022-11-10T07:15:53.264Z,82.56
2022-11-10T07:16:53.257Z,82.87
2022-11-10T07:17:53.262Z,82.87
2022-11-10T07:18:53.250Z,83.18
2022-11-10T07:19:53.282Z,83.12
2022-11-10T07:20:53.243Z,83.28
2022-11-10T07:21:53.229Z,83.14
2022-11-10T07:22:53.230Z,81.57
2022-11-10T07:23:53.232Z,82.14
2022-11-10T07:24:53.231Z,80.69
2022-11-10T07:25:53.224Z,78.78
2022-11-10T07:26:53.212Z,76.36
2022-11-10T07:27:53.231Z,75.07
2022-11-10T07:28:53.224Z,73.16
2022-11-10T07:29:53.239Z,71.87
2022-11-10T07:30:53.200Z,68.92
2022-11-10T07:31:53.183Z,68.08
2022-11-10T07:32:53.180Z,66.90
2022-11-10T07:33:54.641Z,65.89
2022-11-10T07:34:54.157Z,63.93
2022-11-10T07:35:53.165Z,62.41
2022-11-10T07:36:53.146Z,62.18
2022-11-10T07:37:53.122Z,61.85
2022-11-10T07:38:54.147Z,61.29
2022-11-10T07:39:53.154Z,59.16
2022-11-10T07:40:53.153Z,58.80
2022-11-10T07:41:53.150Z,58.78
2022-11-10T07:42:53.164Z,58.25
2022-11-10T07:43:53.113Z,57.35
2022-11-10T07:44:53.110Z,56.22
2022-11-10T07:45:53.085Z,55.01
2022-11-10T07:46:53.082Z,56.35
2022-11-10T07:47:53.074Z,57.03
2022-11-10T07:48:53.096Z,58.62
2022-11-10T07:49:53.079Z,57.78
2022-11-10T07:50:53.061Z,57.31
2022-11-10T07:51:53.055Z,59.18
2022-11-10T07:52:53.069Z,59.51
2022-11-10T07:53:53.036Z,58.75
2022-11-10T07:54:53.047Z,57.76
2022-11-10T07:55:53.026Z,57.17
2022-11-10T07:56:53.017Z,54.71
2022-11-10T07:57:53.033Z,52.87
2022-11-10T07:58:53.005Z,54.86
2022-11-10T07:59:56.991Z,54.75
2022-11-10T08:00:55.051Z,54.93
2022-11-10T08:01:53.909Z,53.72
2022-11-10T08:02:53.041Z,52.04
2022-11-10T08:03:52.969Z,51.06
2022-11-10T08:04:52.972Z,51.14
2022-11-10T08:05:52.992Z,52.07
2022-11-10T08:06:53.013Z,51.12
2022-11-10T08:07:53.139Z,49.74
2022-11-10T08:08:52.929Z,51.21
2022-11-10T08:09:52.951Z,54.33
2022-11-10T08:10:52.926Z,52.75
2022-11-10T08:11:52.939Z,51.74
2022-11-10T08:12:52.920Z,53.59
2022-11-10T08:13:52.956Z,55.81
2022-11-10T08:14:52.913Z,58.74
2022-11-10T08:15:52.900Z,58.64
2022-11-10T08:16:52.923Z,60.71
2022-11-10T08:17:52.872Z,60.81
2022-11-10T08:18:52.889Z,63.38
2022-11-10T08:19:52.972Z,65.56
2022-11-10T08:20:52.859Z,67.01
2022-11-10T08:21:52.879Z,67.05
2022-11-10T08:22:52.852Z,67.01
2022-11-10T08:23:52.875Z,67.08
2022-11-10T08:24:52.835Z,65.70
2022-11-10T08:25:52.835Z,63.32
2022-11-10T08:26:52.855Z,63.09
2022-11-10T08:27:52.865Z,61.61
2022-11-10T08:28:52.832Z,61.29
2022-11-10T08:29:52.817Z,60.65
2022-11-10T08:30:52.803Z,59.06
2022-11-10T08:31:52.828Z,58.22
2022-11-10T08:32:52.795Z,58.48
2022-11-10T08:33:53.823Z,60.15
2022-11-10T08:34:53.335Z,60.68
2022-11-10T08:35:52.783Z,61.59
2022-11-10T08:36:52.809Z,60.88
2022-11-10T08:37:52.775Z,60.85
2022-11-10T08:38:52.804Z,60.09
2022-11-10T08:39:52.831Z,60.35
2022-11-10T08:40:52.749Z,61.16
2022-11-10T08:41:52.754Z,60.02
2022-11-10T08:42:52.755Z,59.14
2022-11-10T08:43:52.741Z,61.03
2022-11-10T08:44:52.746Z,60.06
2022-11-10T08:45:52.719Z,58.62
2022-11-10T08:46:52.750Z,58.88
2022-11-10T08:47:52.715Z,58.68
2022-11-10T08:48:52.717Z,58.62
2022-11-10T08:49:52.700Z,58.07
2022-11-10T08:50:52.689Z,60.58
2022-11-10T08:51:52.694Z,64.53
2022-11-10T08:52:52.665Z,62.85
2022-11-10T08:53:53.688Z,61.29
2022-11-10T08:54:53.389Z,60.72
2022-11-10T08:55:52.659Z,59.34
2022-11-10T08:56:52.676Z,61.59
2022-11-10T08:57:52.733Z,60.93
2022-11-10T08:58:53.469Z,59.92
2022-11-10T08:59:53.649Z,59.42
2022-11-10T09:00:52.670Z,59.31
2022-11-10T09:01:53.329Z,59.62
2022-11-10T09:02:52.608Z,59.82
2022-11-10T09:03:52.674Z,59.13
2022-11-10T09:04:52.662Z,58.02
2022-11-10T09:05:58.036Z,59.19
2022-11-10T09:06:54.602Z,58.75
2022-11-10T09:07:52.589Z,58.60
2022-11-10T09:08:52.588Z,56.99
2022-11-10T09:10:06.694Z,58.98
2022-11-10T09:10:54.552Z,58.86
2022-11-10T09:11:53.322Z,58.65
2022-11-10T09:12:52.540Z,58.95
2022-11-10T09:13:52.533Z,59.55
2022-11-10T09:14:52.579Z,64.49
2022-11-10T09:15:52.526Z,68.70
2022-11-10T09:16:52.528Z,68.56
2022-11-10T09:17:52.507Z,68.06
2022-11-10T09:18:52.525Z,65.21
2022-11-10T09:19:52.536Z,62.83
2022-11-10T09:20:52.489Z,61.16
2022-11-10T09:21:52.488Z,61.49
2022-11-10T09:22:52.576Z,59.48
2022-11-10T09:23:52.462Z,60.63
2022-11-10T09:24:52.538Z,58.93
2022-11-10T09:25:52.471Z,57.17
2022-11-10T09:26:52.441Z,55.83
2022-11-10T09:27:52.516Z,57.32
2022-11-10T09:28:52.452Z,57.06
2022-11-10T09:29:52.471Z,55.13
2022-11-10T09:30:52.457Z,57.12
2022-11-10T09:31:52.450Z,57.72
2022-11-10T09:32:52.462Z,56.93
2022-11-10T09:33:52.394Z,56.16
2022-11-10T09:34:53.367Z,57.59
2022-11-10T09:35:52.448Z,57.37
2022-11-10T09:36:52.386Z,57.67
2022-11-10T09:37:52.393Z,56.13
2022-11-10T09:38:52.392Z,57.14
2022-11-10T09:39:52.367Z,57.57
2022-11-10T09:40:52.368Z,57.06
2022-11-10T09:41:52.364Z,57.17
2022-11-10T09:42:52.347Z,57.17
2022-11-10T09:43:52.356Z,57.19
2022-11-10T09:44:52.340Z,57.77
2022-11-10T09:45:52.841Z,54.95
2022-11-10T09:46:52.336Z,54.32
2022-11-10T09:47:59.367Z,53.92
2022-11-10T09:48:54.301Z,53.82
2022-11-10T09:49:52.337Z,55.10
2022-11-10T09:50:52.324Z,55.08
2022-11-10T09:51:52.304Z,55.18
2022-11-10T09:52:52.320Z,54.75
2022-11-10T09:53:52.296Z,56.21
2022-11-10T09:54:52.452Z,54.39
2022-11-10T09:55:52.284Z,53.82
2022-11-10T09:56:52.276Z,55.38
2022-11-10T09:57:52.268Z,55.10
2022-11-10T09:58:52.251Z,55.93
2022-11-10T09:59:52.259Z,55.93
2022-11-10T10:00:52.285Z,57.64
2022-11-10T10:01:52.317Z,55.25
2022-11-10T10:02:52.222Z,55.68
2022-11-10T10:03:52.222Z,54.30
2022-11-10T10:04:52.417Z,53.24
2022-11-10T10:05:53.241Z,51.79
2022-11-10T10:07:10.184Z,50.70
2022-11-10T10:07:54.280Z,50.77
2022-11-10T10:08:52.183Z,49.70
2022-11-10T10:09:52.219Z,49.47
2022-11-10T10:10:52.186Z,51.37
2022-11-10T10:11:52.170Z,51.29
2022-11-10T10:12:52.163Z,51.29
2022-11-10T10:13:52.160Z,52.77
2022-11-10T10:14:52.193Z,52.64
2022-11-10T10:15:52.275Z,50.92
2022-11-10T10:16:52.133Z,53.72
2022-11-10T10:17:52.192Z,55.51
2022-11-10T10:18:52.117Z,56.34
2022-11-10T10:19:52.137Z,55.40
2022-11-10T10:20:52.123Z,55.76
2022-11-10T10:21:53.105Z,58.40
2022-11-10T10:22:52.098Z,57.59
2022-11-10T10:24:09.365Z,57.29
2022-11-10T10:24:54.108Z,58.95
2022-11-10T10:25:52.151Z,58.83
2022-11-10T10:26:52.084Z,56.03
2022-11-10T10:27:52.074Z,56.81
2022-11-10T10:28:52.052Z,58.05
2022-11-10T10:29:52.051Z,58.95
2022-11-10T10:30:52.050Z,60.65
2022-11-10T10:31:52.031Z,64.30
2022-11-10T10:32:52.035Z,65.31
2022-11-10T10:33:52.016Z,63.00
2022-11-10T10:34:52.018Z,61.99
2022-11-10T10:35:52.032Z,61.30
2022-11-10T10:36:52.003Z,59.13
2022-11-10T10:37:51.991Z,57.41
2022-11-10T10:38:51.986Z,54.60
2022-11-10T10:39:51.971Z,54.77
2022-11-10T10:40:51.999Z,53.27
2022-11-10T10:41:51.983Z,53.44
2022-11-10T10:42:51.979Z,52.87
2022-11-10T10:43:51.959Z,54.12
2022-11-10T10:44:51.951Z,55.10
2022-11-10T10:45:52.015Z,57.87
2022-11-10T10:46:51.939Z,56.86
2022-11-10T10:47:51.944Z,58.33
2022-11-10T10:49:08.305Z,58.40
2022-11-10T10:49:53.916Z,59.22
2022-11-10T10:50:51.903Z,59.66
2022-11-10T10:51:51.936Z,58.33
2022-11-10T10:52:51.911Z,58.33
2022-11-10T10:53:52.833Z,58.75
2022-11-10T10:54:52.977Z,59.56
2022-11-10T10:55:51.877Z,60.60
2022-11-10T10:56:51.901Z,61.25
2022-11-10T10:57:51.878Z,62.96
2022-11-10T10:58:51.856Z,63.70
2022-11-10T10:59:52.896Z,65.11
2022-11-10T11:00:51.863Z,63.56
2022-11-10T11:01:51.864Z,64.30
2022-11-10T11:02:51.881Z,65.84
2022-11-10T11:03:51.844Z,64.98
2022-11-10T11:04:51.850Z,65.01
2022-11-10T11:05:51.832Z,66.85
2022-11-10T11:06:51.865Z,67.99
2022-11-10T11:07:52.306Z,68.70
2022-11-10T11:08:55.632Z,69.88
2022-11-10T11:09:52.803Z,70.29
2022-11-10T11:10:51.800Z,69.41
2022-11-10T11:11:51.789Z,68.56
2022-11-10T11:12:51.779Z,69.44
2022-11-10T11:13:51.804Z,69.10
2022-11-10T11:14:51.776Z,67.43
2022-11-10T11:15:51.776Z,66.62
2022-11-10T11:16:51.771Z,63.10
2022-11-10T11:17:51.778Z,63.53
2022-11-10T11:18:51.760Z,61.60
2022-11-10T11:19:55.725Z,59.74
2022-11-10T11:20:53.727Z,58.27
2022-11-10T11:21:51.823Z,59.33
2022-11-10T11:22:51.716Z,59.00
2022-11-10T11:23:51.888Z,57.97
2022-11-10T11:24:51.704Z,57.64
2022-11-10T11:25:51.693Z,56.71
2022-11-10T11:26:51.694Z,58.40
2022-11-10T11:27:51.728Z,58.86
2022-11-10T11:28:51.697Z,59.03
2022-11-10T11:29:51.685Z,58.67
2022-11-10T11:30:51.670Z,56.21
2022-11-10T11:31:51.656Z,56.84
2022-11-10T11:32:51.691Z,55.93
2022-11-10T11:33:51.646Z,56.01
2022-11-10T11:34:51.638Z,55.43
2022-11-10T11:35:51.675Z,56.38
2022-11-10T11:36:51.637Z,61.69
2022-11-10T11:37:51.674Z,59.43
2022-11-10T11:38:51.620Z,58.91
2022-11-10T11:39:51.636Z,61.46
2022-11-10T11:40:51.617Z,58.68
2022-11-10T11:41:51.668Z,60.52
2022-11-10T11:42:51.665Z,61.89
2022-11-10T11:43:51.595Z,62.77
2022-11-10T11:44:51.580Z,59.08
2022-11-10T11:45:51.577Z,59.66
2022-11-10T11:46:51.570Z,58.95
2022-11-10T11:47:51.578Z,58.40
2022-11-10T11:48:51.643Z,56.93
2022-11-10T11:49:51.563Z,57.82
2022-11-10T11:50:51.548Z,59.11
2022-11-10T11:51:51.556Z,59.69
2022-11-10T11:52:51.518Z,59.69
2022-11-10T11:53:51.535Z,58.55
2022-11-10T11:54:51.546Z,58.98
2022-11-10T11:55:51.511Z,60.12
2022-11-10T11:56:51.512Z,59.59
2022-11-10T11:57:51.504Z,58.75
2022-11-10T11:58:51.493Z,58.86
2022-11-10T11:59:51.542Z,58.40
2022-11-10T12:00:51.491Z,57.26
2022-11-10T12:01:51.496Z,57.39
2022-11-10T12:02:53.189Z,57.37
2022-11-10T12:03:52.450Z,57.79
2022-11-10T12:04:51.479Z,55.80
2022-11-10T12:05:51.471Z,55.86
2022-11-10T12:06:51.485Z,57.67
2022-11-10T12:07:51.457Z,56.23
2022-11-10T12:08:51.423Z,58.75
2022-11-10T12:09:51.433Z,59.95
2022-11-10T12:10:51.423Z,61.05
2022-11-10T12:11:51.429Z,60.93
2022-11-10T12:12:51.407Z,61.53
2022-11-10T12:13:51.423Z,59.63
2022-11-10T12:14:51.406Z,58.75
2022-11-10T12:15:51.372Z,59.28
2022-11-10T12:16:51.396Z,60.12
2022-11-10T12:17:51.481Z,60.75
2022-11-10T12:18:51.367Z,61.33
2022-11-10T12:19:51.361Z,58.75
2022-11-10T12:20:51.377Z,61.16
2022-11-10T12:21:51.376Z,60.06
2022-11-10T12:22:51.348Z,59.86
2022-11-10T12:23:51.337Z,59.19
2022-11-10T12:24:51.334Z,59.19
2022-11-10T12:25:51.362Z,61.61
2022-11-10T12:26:51.323Z,63.73
2022-11-10T12:27:51.330Z,65.27
2022-11-10T12:28:51.364Z,66.75
2022-11-10T12:29:51.339Z,67.35
2022-11-10T12:30:51.297Z,68.33
2022-11-10T12:31:51.301Z,68.63
2022-11-10T12:32:51.273Z,68.19
2022-11-10T12:33:51.288Z,68.53
2022-11-10T12:34:51.256Z,68.97
2022-11-10T12:35:51.258Z,69.17
2022-11-10T12:36:51.292Z,70.29
2022-11-10T12:37:51.243Z,69.24
2022-11-10T12:38:59.411Z,69.98
2022-11-10T12:39:52.237Z,70.42
2022-11-10T12:40:51.260Z,70.52
2022-11-10T12:41:51.231Z,70.32
2022-11-10T12:42:51.240Z,69.85
2022-11-10T12:43:51.232Z,68.63
2022-11-10T12:44:51.271Z,68.60
2022-11-10T12:45:51.195Z,67.89
2022-11-10T12:46:52.242Z,68.63
2022-11-10T12:47:52.204Z,69.07
2022-11-10T12:48:51.247Z,69.57
2022-11-10T12:49:51.191Z,69.24
2022-11-10T12:51:24.721Z,68.43
2022-11-10T12:51:51.183Z,69.04
2022-11-10T12:52:51.167Z,68.87
2022-11-10T12:53:51.145Z,69.71